sensor_id;sensor_type;location;lat;lon;timestamp;temperature;humidity
2391;DHT22;22957;50.824;4.360;2022-11-15T00:02:15;14.40;99.90
2391;DHT22;22957;50.824;4.360;2022-11-15T00:04:41;14.30;99.90
2391;DHT22;22957;50.824;4.360;2022-11-15T00:07:07;14.30;99.90
2391;DHT22;22957;50.824;4.360;2022-11-15T00:09:32;14.20;99.90
2391;DHT22;22957;50.824;4.360;2022-11-15T00:11:58;14.40;99.90
2391;DHT22;22957;50.824;4.360;2022-11-15T00:14:23;14.20;99.90
2391;DHT22;22957;50.824;4.360;2022-11-15T00:16:49;14.00;99.90
2391;DHT22;22957;50.824;4.360;2022-11-15T00:19:15;14.30;99.90
2391;DHT22;22957;50.824;4.360;2022-11-15T00:21:41;14.20;99.90
2391;DHT22;22957;50.824;4.360;2022-11-15T00:24:07;14.40;99.90
2391;DHT22;22957;50.824;4.360;2022-11-15T00:26:32;14.30;99.90
2391;DHT22;22957;50.824;4.360;2022-11-15T00:28:58;13.90;99.90
2391;DHT22;22957;50.824;4.360;2022-11-15T00:31:24;13.90;99.90
2391;DHT22;22957;50.824;4.360;2022-11-15T00:33:50;13.80;99.90
2391;DHT22;22957;50.824;4.360;2022-11-15T00:36:15;14.20;99.90
2391;DHT22;22957;50.824;4.360;2022-11-15T00:38:41;14.20;99.90
2391;DHT22;22957;50.824;4.360;2022-11-15T00:41:07;14.00;99.90
2391;DHT22;22957;50.824;4.360;2022-11-15T00:43:33;14.00;99.90
2391;DHT22;22957;50.824;4.360;2022-11-15T00:45:59;14.30;99.90
2391;DHT22;22957;50.824;4.360;2022-11-15T00:48:25;14.00;99.90
2391;DHT22;22957;50.824;4.360;2022-11-15T00:50:51;14.20;99.90
2391;DHT22;22957;50.824;4.360;2022-11-15T00:53:17;14.40;99.90
2391;DHT22;22957;50.824;4.360;2022-11-15T00:55:43;14.10;99.90
2391;DHT22;22957;50.824;4.360;2022-11-15T00:58:09;14.40;99.90
2391;DHT22;22957;50.824;4.360;2022-11-15T01:00:35;14.40;99.90
2391;DHT22;22957;50.824;4.360;2022-11-15T01:03:01;14.40;99.90
2391;DHT22;22957;50.824;4.360;2022-11-15T01:05:27;14.40;99.90
2391;DHT22;22957;50.824;4.360;2022-11-15T01:07:53;14.70;99.90
2391;DHT22;22957;50.824;4.360;2022-11-15T01:10:19;14.10;99.90
2391;DHT22;22957;50.824;4.360;2022-11-15T01:12:46;14.60;99.90
2391;DHT22;22957;50.824;4.360;2022-11-15T01:15:12;14.40;99.90
2391;DHT22;22957;50.824;4.360;2022-11-15T01:17:37;13.90;99.90
2391;DHT22;22957;50.824;4.360;2022-11-15T01:20:04;14.20;99.90
2391;DHT22;22957;50.824;4.360;2022-11-15T01:22:30;13.90;99.90
2391;DHT22;22957;50.824;4.360;2022-11-15T01:24:55;14.30;99.90
2391;DHT22;22957;50.824;4.360;2022-11-15T01:27:22;14.10;99.90
2391;DHT22;22957;50.824;4.360;2022-11-15T01:29:47;14.30;99.90
2391;DHT22;22957;50.824;4.360;2022-11-15T01:32:13;14.40;99.90
2391;DHT22;22957;50.824;4.360;2022-11-15T01:34:39;14.30;99.90
2391;DHT22;22957;50.824;4.360;2022-11-15T01:37:04;14.40;99.90
2391;DHT22;22957;50.824;4.360;2022-11-15T01:39:30;14.40;99.90
2391;DHT22;22957;50.824;4.360;2022-11-15T01:41:55;14.40;99.90
2391;DHT22;22957;50.824;4.360;2022-11-15T01:46:57;14.90;99.90
2391;DHT22;22957;50.824;4.360;2022-11-15T01:49:24;14.20;99.90
2391;DHT22;22957;50.824;4.360;2022-11-15T01:51:51;14.00;99.90
2391;DHT22;22957;50.824;4.360;2022-11-15T01:54:19;14.40;99.90
2391;DHT22;22957;50.824;4.360;2022-11-15T01:56:55;14.40;99.90
2391;DHT22;22957;50.824;4.360;2022-11-15T01:59:23;14.20;99.90
2391;DHT22;22957;50.824;4.360;2022-11-15T02:01:49;14.50;99.90
2391;DHT22;22957;50.824;4.360;2022-11-15T02:04:36;14.30;99.90
2391;DHT22;22957;50.824;4.360;2022-11-15T02:07:05;14.30;99.90
2391;DHT22;22957;50.824;4.360;2022-11-15T02:09:32;14.40;99.90
2391;DHT22;22957;50.824;4.360;2022-11-15T02:11:59;14.70;99.90
2391;DHT22;22957;50.824;4.360;2022-11-15T02:14:26;14.60;99.90
2391;DHT22;22957;50.824;4.360;2022-11-15T02:17:21;14.70;99.90
2391;DHT22;22957;50.824;4.360;2022-11-15T02:33:42;14.10;99.90
2391;DHT22;22957;50.824;4.360;2022-11-15T02:36:11;14.00;99.90
2391;DHT22;22957;50.824;4.360;2022-11-15T02:38:47;13.90;99.90
2391;DHT22;22957;50.824;4.360;2022-11-15T02:47:06;14.30;99.90
2391;DHT22;22957;50.824;4.360;2022-11-15T02:49:52;14.10;99.90
2391;DHT22;22957;50.824;4.360;2022-11-15T02:52:23;14.20;99.90
2391;DHT22;22957;50.824;4.360;2022-11-15T02:54:56;14.10;99.90
2391;DHT22;22957;50.824;4.360;2022-11-15T02:57:45;13.80;99.90
2391;DHT22;22957;50.824;4.360;2022-11-15T03:00:16;14.00;99.90
2391;DHT22;22957;50.824;4.360;2022-11-15T03:02:57;13.90;99.90
2391;DHT22;22957;50.824;4.360;2022-11-15T03:05:35;14.10;99.90
2391;DHT22;22957;50.824;4.360;2022-11-15T03:11:15;13.90;99.90
2391;DHT22;22957;50.824;4.360;2022-11-15T03:14:07;14.10;99.90
2391;DHT22;22957;50.824;4.360;2022-11-15T03:16:56;14.00;99.90
2391;DHT22;22957;50.824;4.360;2022-11-15T03:19:34;13.90;99.90
2391;DHT22;22957;50.824;4.360;2022-11-15T03:22:05;14.10;99.90
2391;DHT22;22957;50.824;4.360;2022-11-15T03:24:36;13.90;99.90
2391;DHT22;22957;50.824;4.360;2022-11-15T03:27:05;14.10;99.90
2391;DHT22;22957;50.824;4.360;2022-11-15T03:29:46;14.00;99.90
2391;DHT22;22957;50.824;4.360;2022-11-15T03:32:17;14.30;99.90
2391;DHT22;22957;50.824;4.360;2022-11-15T03:34:49;14.10;99.90
2391;DHT22;22957;50.824;4.360;2022-11-15T03:37:17;14.30;99.90
2391;DHT22;22957;50.824;4.360;2022-11-15T03:39:45;13.90;99.90
2391;DHT22;22957;50.824;4.360;2022-11-15T03:42:26;14.10;99.90
2391;DHT22;22957;50.824;4.360;2022-11-15T03:47:53;14.10;99.90
2391;DHT22;22957;50.824;4.360;2022-11-15T03:50:21;14.30;99.90
2391;DHT22;22957;50.824;4.360;2022-11-15T03:52:49;14.20;99.90
2391;DHT22;22957;50.824;4.360;2022-11-15T03:55:20;14.00;99.90
2391;DHT22;22957;50.824;4.360;2022-11-15T03:57:50;14.40;99.90
2391;DHT22;22957;50.824;4.360;2022-11-15T04:00:16;14.30;99.90
2391;DHT22;22957;50.824;4.360;2022-11-15T04:02:41;14.00;99.90
2391;DHT22;22957;50.824;4.360;2022-11-15T04:05:07;13.80;99.90
2391;DHT22;22957;50.824;4.360;2022-11-15T04:07:33;13.90;99.90
2391;DHT22;22957;50.824;4.360;2022-11-15T04:09:58;13.80;99.90
2391;DHT22;22957;50.824;4.360;2022-11-15T04:12:35;13.60;99.90
2391;DHT22;22957;50.824;4.360;2022-11-15T04:15:04;13.80;99.90
2391;DHT22;22957;50.824;4.360;2022-11-15T04:17:38;14.20;99.90
2391;DHT22;22957;50.824;4.360;2022-11-15T04:20:25;13.90;99.90
2391;DHT22;22957;50.824;4.360;2022-11-15T04:23:15;13.80;99.90
2391;DHT22;22957;50.824;4.360;2022-11-15T04:26:03;13.70;99.90
2391;DHT22;22957;50.824;4.360;2022-11-15T04:28:29;13.50;99.90
2391;DHT22;22957;50.824;4.360;2022-11-15T04:30:54;13.50;99.90
2391;DHT22;22957;50.824;4.360;2022-11-15T04:33:20;13.80;99.90
2391;DHT22;22957;50.824;4.360;2022-11-15T04:35:46;13.60;99.90
2391;DHT22;22957;50.824;4.360;2022-11-15T04:38:32;13.60;99.90
2391;DHT22;22957;50.824;4.360;2022-11-15T04:40:58;14.00;99.90
2391;DHT22;22957;50.824;4.360;2022-11-15T04:43:24;13.80;99.90
2391;DHT22;22957;50.824;4.360;2022-11-15T04:45:50;13.50;99.90
2391;DHT22;22957;50.824;4.360;2022-11-15T04:48:16;13.60;99.90
2391;DHT22;22957;50.824;4.360;2022-11-15T04:50:41;13.50;99.90
2391;DHT22;22957;50.824;4.360;2022-11-15T04:53:07;13.50;99.90
2391;DHT22;22957;50.824;4.360;2022-11-15T04:55:33;13.50;99.90
2391;DHT22;22957;50.824;4.360;2022-11-15T04:58:00;13.00;99.90
2391;DHT22;22957;50.824;4.360;2022-11-15T05:00:27;13.10;99.90
2391;DHT22;22957;50.824;4.360;2022-11-15T05:02:53;13.10;99.90
2391;DHT22;22957;50.824;4.360;2022-11-15T05:05:38;13.50;99.90
2391;DHT22;22957;50.824;4.360;2022-11-15T05:08:04;13.40;99.90
2391;DHT22;22957;50.824;4.360;2022-11-15T05:10:30;13.00;99.90
2391;DHT22;22957;50.824;4.360;2022-11-15T05:12:56;13.00;99.90
2391;DHT22;22957;50.824;4.360;2022-11-15T05:15:22;12.90;99.90
2391;DHT22;22957;50.824;4.360;2022-11-15T05:17:48;13.20;99.90
2391;DHT22;22957;50.824;4.360;2022-11-15T05:20:14;13.20;99.90
2391;DHT22;22957;50.824;4.360;2022-11-15T05:22:40;13.00;99.90
2391;DHT22;22957;50.824;4.360;2022-11-15T05:25:07;13.00;99.90
2391;DHT22;22957;50.824;4.360;2022-11-15T05:27:33;13.00;99.90
2391;DHT22;22957;50.824;4.360;2022-11-15T05:29:59;13.00;99.90
2391;DHT22;22957;50.824;4.360;2022-11-15T05:32:25;12.90;99.90
2391;DHT22;22957;50.824;4.360;2022-11-15T05:34:52;13.00;99.90
2391;DHT22;22957;50.824;4.360;2022-11-15T05:37:17;13.10;99.90
2391;DHT22;22957;50.824;4.360;2022-11-15T05:39:43;12.80;99.90
2391;DHT22;22957;50.824;4.360;2022-11-15T05:42:15;12.70;99.90
2391;DHT22;22957;50.824;4.360;2022-11-15T05:44:47;12.90;99.90
2391;DHT22;22957;50.824;4.360;2022-11-15T05:47:17;12.50;99.90
2391;DHT22;22957;50.824;4.360;2022-11-15T05:49:45;12.30;99.90
2391;DHT22;22957;50.824;4.360;2022-11-15T05:52:14;12.80;99.90
2391;DHT22;22957;50.824;4.360;2022-11-15T05:54:42;12.60;99.90
2391;DHT22;22957;50.824;4.360;2022-11-15T05:57:08;12.60;99.90
2391;DHT22;22957;50.824;4.360;2022-11-15T05:59:35;12.40;99.90
2391;DHT22;22957;50.824;4.360;2022-11-15T06:02:01;12.50;99.90
2391;DHT22;22957;50.824;4.360;2022-11-15T06:04:26;12.30;99.90
2391;DHT22;22957;50.824;4.360;2022-11-15T06:06:52;12.20;99.90
2391;DHT22;22957;50.824;4.360;2022-11-15T06:09:18;12.40;99.90
2391;DHT22;22957;50.824;4.360;2022-11-15T06:11:43;12.40;99.90
2391;DHT22;22957;50.824;4.360;2022-11-15T06:14:09;12.20;99.90
2391;DHT22;22957;50.824;4.360;2022-11-15T06:16:35;12.40;99.90
2391;DHT22;22957;50.824;4.360;2022-11-15T06:19:01;12.40;99.90
2391;DHT22;22957;50.824;4.360;2022-11-15T06:21:26;12.50;99.90
2391;DHT22;22957;50.824;4.360;2022-11-15T06:23:53;12.50;99.90
2391;DHT22;22957;50.824;4.360;2022-11-15T06:26:19;12.20;99.90
2391;DHT22;22957;50.824;4.360;2022-11-15T06:28:45;12.40;99.90
2391;DHT22;22957;50.824;4.360;2022-11-15T06:31:11;12.00;99.90
2391;DHT22;22957;50.824;4.360;2022-11-15T06:33:40;12.30;99.90
2391;DHT22;22957;50.824;4.360;2022-11-15T06:36:08;12.10;99.90
2391;DHT22;22957;50.824;4.360;2022-11-15T06:38:35;11.90;99.90
2391;DHT22;22957;50.824;4.360;2022-11-15T06:41:02;12.00;99.90
2391;DHT22;22957;50.824;4.360;2022-11-15T06:43:27;11.90;99.90
2391;DHT22;22957;50.824;4.360;2022-11-15T06:45:53;12.10;99.90
2391;DHT22;22957;50.824;4.360;2022-11-15T06:48:19;11.70;99.90
2391;DHT22;22957;50.824;4.360;2022-11-15T06:50:51;11.80;99.90
2391;DHT22;22957;50.824;4.360;2022-11-15T06:53:17;12.00;99.90
2391;DHT22;22957;50.824;4.360;2022-11-15T06:55:43;12.00;99.90
2391;DHT22;22957;50.824;4.360;2022-11-15T06:58:08;11.90;99.90
2391;DHT22;22957;50.824;4.360;2022-11-15T07:00:34;11.90;99.90
2391;DHT22;22957;50.824;4.360;2022-11-15T07:03:00;11.80;99.90
2391;DHT22;22957;50.824;4.360;2022-11-15T07:05:26;11.80;99.90
2391;DHT22;22957;50.824;4.360;2022-11-15T07:07:57;11.80;99.90
2391;DHT22;22957;50.824;4.360;2022-11-15T07:10:23;11.70;99.90
2391;DHT22;22957;50.824;4.360;2022-11-15T07:12:53;11.80;99.90
2391;DHT22;22957;50.824;4.360;2022-11-15T07:15:21;11.90;99.90
2391;DHT22;22957;50.824;4.360;2022-11-15T07:17:47;12.30;99.90
2391;DHT22;22957;50.824;4.360;2022-11-15T07:20:13;11.60;99.90
2391;DHT22;22957;50.824;4.360;2022-11-15T07:22:42;11.70;99.90
2391;DHT22;22957;50.824;4.360;2022-11-15T07:25:10;11.80;99.90
2391;DHT22;22957;50.824;4.360;2022-11-15T07:27:36;12.00;99.90
2391;DHT22;22957;50.824;4.360;2022-11-15T07:30:02;11.80;99.90
2391;DHT22;22957;50.824;4.360;2022-11-15T07:32:28;11.70;99.90
2391;DHT22;22957;50.824;4.360;2022-11-15T07:34:54;11.70;99.90
2391;DHT22;22957;50.824;4.360;2022-11-15T07:37:20;11.60;99.90
2391;DHT22;22957;50.824;4.360;2022-11-15T07:39:46;11.70;99.90
2391;DHT22;22957;50.824;4.360;2022-11-15T07:42:11;11.80;99.90
2391;DHT22;22957;50.824;4.360;2022-11-15T07:44:56;11.60;99.90
2391;DHT22;22957;50.824;4.360;2022-11-15T07:47:21;11.60;99.90
2391;DHT22;22957;50.824;4.360;2022-11-15T07:49:47;11.60;99.90
2391;DHT22;22957;50.824;4.360;2022-11-15T07:52:13;11.80;99.90
2391;DHT22;22957;50.824;4.360;2022-11-15T07:54:39;12.30;99.90
2391;DHT22;22957;50.824;4.360;2022-11-15T07:57:05;11.90;99.90
2391;DHT22;22957;50.824;4.360;2022-11-15T07:59:32;12.10;99.90
2391;DHT22;22957;50.824;4.360;2022-11-15T08:02:00;11.80;99.90
2391;DHT22;22957;50.824;4.360;2022-11-15T08:04:25;12.20;99.90
2391;DHT22;22957;50.824;4.360;2022-11-15T08:06:51;12.30;99.90
2391;DHT22;22957;50.824;4.360;2022-11-15T08:09:17;12.90;99.90
2391;DHT22;22957;50.824;4.360;2022-11-15T08:11:42;13.20;99.90
2391;DHT22;22957;50.824;4.360;2022-11-15T08:14:08;13.00;99.90
2391;DHT22;22957;50.824;4.360;2022-11-15T08:16:34;13.60;99.90
2391;DHT22;22957;50.824;4.360;2022-11-15T08:18:59;13.80;99.90
2391;DHT22;22957;50.824;4.360;2022-11-15T08:21:25;13.80;99.90
2391;DHT22;22957;50.824;4.360;2022-11-15T08:23:51;13.60;99.90
2391;DHT22;22957;50.824;4.360;2022-11-15T08:26:17;13.30;99.90
2391;DHT22;22957;50.824;4.360;2022-11-15T08:28:43;13.40;99.90
2391;DHT22;22957;50.824;4.360;2022-11-15T08:31:16;13.20;99.90
2391;DHT22;22957;50.824;4.360;2022-11-15T08:33:43;13.60;99.90
2391;DHT22;22957;50.824;4.360;2022-11-15T08:36:13;13.50;99.90
2391;DHT22;22957;50.824;4.360;2022-11-15T08:38:40;13.30;99.90
2391;DHT22;22957;50.824;4.360;2022-11-15T08:41:05;13.40;99.90
2391;DHT22;22957;50.824;4.360;2022-11-15T08:43:32;13.30;99.90
2391;DHT22;22957;50.824;4.360;2022-11-15T08:45:58;13.30;99.90
2391;DHT22;22957;50.824;4.360;2022-11-15T08:48:24;13.50;99.90
2391;DHT22;22957;50.824;4.360;2022-11-15T08:50:56;13.90;99.90
2391;DHT22;22957;50.824;4.360;2022-11-15T08:53:22;14.10;99.90
2391;DHT22;22957;50.824;4.360;2022-11-15T08:55:48;13.50;99.90
2391;DHT22;22957;50.824;4.360;2022-11-15T08:58:14;13.50;99.90
2391;DHT22;22957;50.824;4.360;2022-11-15T09:00:39;13.20;99.90
2391;DHT22;22957;50.824;4.360;2022-11-15T09:03:06;13.40;99.90
2391;DHT22;22957;50.824;4.360;2022-11-15T09:05:32;13.90;99.90
2391;DHT22;22957;50.824;4.360;2022-11-15T09:08:00;14.70;99.90
2391;DHT22;22957;50.824;4.360;2022-11-15T09:10:26;14.10;99.90
2391;DHT22;22957;50.824;4.360;2022-11-15T09:12:52;14.20;99.90
2391;DHT22;22957;50.824;4.360;2022-11-15T09:15:18;14.30;99.90
2391;DHT22;22957;50.824;4.360;2022-11-15T09:17:45;14.40;99.90
2391;DHT22;22957;50.824;4.360;2022-11-15T09:20:11;15.10;99.90
2391;DHT22;22957;50.824;4.360;2022-11-15T09:22:37;14.90;99.90
2391;DHT22;22957;50.824;4.360;2022-11-15T09:25:04;14.70;99.90
2391;DHT22;22957;50.824;4.360;2022-11-15T09:27:33;14.60;99.90
2391;DHT22;22957;50.824;4.360;2022-11-15T09:29:59;15.10;99.90
2391;DHT22;22957;50.824;4.360;2022-11-15T09:32:28;15.40;99.90
2391;DHT22;22957;50.824;4.360;2022-11-15T09:34:55;15.50;99.90
2391;DHT22;22957;50.824;4.360;2022-11-15T09:37:21;15.50;99.90
2391;DHT22;22957;50.824;4.360;2022-11-15T09:39:47;15.60;99.90
2391;DHT22;22957;50.824;4.360;2022-11-15T09:42:30;15.40;99.90
2391;DHT22;22957;50.824;4.360;2022-11-15T09:50:40;15.30;99.90
2391;DHT22;22957;50.824;4.360;2022-11-15T09:53:12;15.50;99.90
2391;DHT22;22957;50.824;4.360;2022-11-15T09:55:50;14.60;99.90
2391;DHT22;22957;50.824;4.360;2022-11-15T10:00:58;15.10;99.90
2391;DHT22;22957;50.824;4.360;2022-11-15T10:03:36;14.90;99.90
2391;DHT22;22957;50.824;4.360;2022-11-15T10:06:08;14.70;99.90
2391;DHT22;22957;50.824;4.360;2022-11-15T10:09:15;15.30;99.90
2391;DHT22;22957;50.824;4.360;2022-11-15T10:11:42;14.90;99.90
2391;DHT22;22957;50.824;4.360;2022-11-15T10:14:21;14.80;99.90
2391;DHT22;22957;50.824;4.360;2022-11-15T10:19:54;15.30;99.90
2391;DHT22;22957;50.824;4.360;2022-11-15T10:22:30;14.60;99.90
2391;DHT22;22957;50.824;4.360;2022-11-15T10:27:34;15.40;99.90
2391;DHT22;22957;50.824;4.360;2022-11-15T10:30:00;14.60;99.90
2391;DHT22;22957;50.824;4.360;2022-11-15T10:32:26;14.90;99.90
2391;DHT22;22957;50.824;4.360;2022-11-15T10:34:52;15.60;99.90
2391;DHT22;22957;50.824;4.360;2022-11-15T10:37:29;15.10;99.90
2391;DHT22;22957;50.824;4.360;2022-11-15T10:40:14;15.20;99.90
2391;DHT22;22957;50.824;4.360;2022-11-15T10:42:40;14.90;99.90
2391;DHT22;22957;50.824;4.360;2022-11-15T10:45:35;15.00;99.90
2391;DHT22;22957;50.824;4.360;2022-11-15T10:48:25;15.00;99.90
2391;DHT22;22957;50.824;4.360;2022-11-15T10:50:52;14.20;99.90
2391;DHT22;22957;50.824;4.360;2022-11-15T10:53:23;14.50;99.90
2391;DHT22;22957;50.824;4.360;2022-11-15T10:55:51;14.90;99.90
2391;DHT22;22957;50.824;4.360;2022-11-15T11:00:53;15.40;99.90
2391;DHT22;22957;50.824;4.360;2022-11-15T11:03:33;14.70;99.90
2391;DHT22;22957;50.824;4.360;2022-11-15T11:06:09;14.90;99.90
2391;DHT22;22957;50.824;4.360;2022-11-15T11:08:35;15.10;99.90
2391;DHT22;22957;50.824;4.360;2022-11-15T11:11:02;14.80;99.90
2391;DHT22;22957;50.824;4.360;2022-11-15T11:13:37;14.70;99.90
2391;DHT22;22957;50.824;4.360;2022-11-15T11:16:36;14.90;99.90
2391;DHT22;22957;50.824;4.360;2022-11-15T11:19:57;15.20;99.90
2391;DHT22;22957;50.824;4.360;2022-11-15T11:22:40;14.50;99.90
2391;DHT22;22957;50.824;4.360;2022-11-15T11:36:49;14.80;99.90
2391;DHT22;22957;50.824;4.360;2022-11-15T11:47:40;15.50;99.90
2391;DHT22;22957;50.824;4.360;2022-11-15T11:50:15;15.00;99.90
2391;DHT22;22957;50.824;4.360;2022-11-15T11:55:28;15.50;99.90
2391;DHT22;22957;50.824;4.360;2022-11-15T11:58:24;15.20;99.90
2391;DHT22;22957;50.824;4.360;2022-11-15T12:01:11;15.60;99.90
2391;DHT22;22957;50.824;4.360;2022-11-15T12:03:45;15.90;99.90
2391;DHT22;22957;50.824;4.360;2022-11-15T12:12:39;15.20;99.90
2391;DHT22;22957;50.824;4.360;2022-11-15T12:15:27;14.70;99.90
2391;DHT22;22957;50.824;4.360;2022-11-15T12:17:56;15.00;99.90
2391;DHT22;22957;50.824;4.360;2022-11-15T12:20:39;15.20;99.90
2391;DHT22;22957;50.824;4.360;2022-11-15T12:23:26;15.00;99.90
2391;DHT22;22957;50.824;4.360;2022-11-15T12:25:59;14.70;99.90
2391;DHT22;22957;50.824;4.360;2022-11-15T12:28:40;15.00;99.90
2391;DHT22;22957;50.824;4.360;2022-11-15T12:31:16;14.90;99.90
2391;DHT22;22957;50.824;4.360;2022-11-15T12:33:45;15.20;99.90
2391;DHT22;22957;50.824;4.360;2022-11-15T12:36:31;14.80;99.90
2391;DHT22;22957;50.824;4.360;2022-11-15T12:39:09;14.70;99.90
2391;DHT22;22957;50.824;4.360;2022-11-15T12:41:42;15.00;99.90
2391;DHT22;22957;50.824;4.360;2022-11-15T13:02:37;15.30;99.90
2391;DHT22;22957;50.824;4.360;2022-11-15T13:20:15;15.20;99.90
2391;DHT22;22957;50.824;4.360;2022-11-15T13:28:01;15.00;99.90
2391;DHT22;22957;50.824;4.360;2022-11-15T13:30:29;14.90;99.90
2391;DHT22;22957;50.824;4.360;2022-11-15T13:33:07;15.30;99.90
2391;DHT22;22957;50.824;4.360;2022-11-15T13:35:38;15.20;99.90
2391;DHT22;22957;50.824;4.360;2022-11-15T13:38:05;15.10;99.90
2391;DHT22;22957;50.824;4.360;2022-11-15T13:40:49;15.40;99.90
2391;DHT22;22957;50.824;4.360;2022-11-15T13:43:27;15.10;99.90
2391;DHT22;22957;50.824;4.360;2022-11-15T13:46:23;15.30;99.90
2391;DHT22;22957;50.824;4.360;2022-11-15T13:49:03;15.30;99.90
2391;DHT22;22957;50.824;4.360;2022-11-15T13:51:40;15.20;99.90
2391;DHT22;22957;50.824;4.360;2022-11-15T13:56:53;15.00;99.90
2391;DHT22;22957;50.824;4.360;2022-11-15T13:59:30;15.20;99.90
2391;DHT22;22957;50.824;4.360;2022-11-15T14:02:01;15.10;99.90
2391;DHT22;22957;50.824;4.360;2022-11-15T14:04:30;14.80;99.90
2391;DHT22;22957;50.824;4.360;2022-11-15T14:06:59;14.90;99.90
2391;DHT22;22957;50.824;4.360;2022-11-15T14:12:00;15.10;99.90
2391;DHT22;22957;50.824;4.360;2022-11-15T14:14:28;15.00;99.90
2391;DHT22;22957;50.824;4.360;2022-11-15T14:16:58;14.80;99.90
2391;DHT22;22957;50.824;4.360;2022-11-15T14:22:10;15.30;99.90
2391;DHT22;22957;50.824;4.360;2022-11-15T14:24:36;15.10;99.90
2391;DHT22;22957;50.824;4.360;2022-11-15T14:27:25;15.20;99.90
2391;DHT22;22957;50.824;4.360;2022-11-15T14:29:52;15.00;99.90
2391;DHT22;22957;50.824;4.360;2022-11-15T14:32:21;14.80;99.90
2391;DHT22;22957;50.824;4.360;2022-11-15T14:34:49;14.60;99.90
2391;DHT22;22957;50.824;4.360;2022-11-15T14:37:23;14.60;99.90
2391;DHT22;22957;50.824;4.360;2022-11-15T14:39:56;14.80;99.90
2391;DHT22;22957;50.824;4.360;2022-11-15T14:42:23;14.60;99.90
2391;DHT22;22957;50.824;4.360;2022-11-15T14:44:49;14.60;99.90
2391;DHT22;22957;50.824;4.360;2022-11-15T14:47:15;14.30;99.90
2391;DHT22;22957;50.824;4.360;2022-11-15T14:49:44;14.30;99.90
2391;DHT22;22957;50.824;4.360;2022-11-15T14:52:24;13.90;99.90
2391;DHT22;22957;50.824;4.360;2022-11-15T14:54:53;13.90;99.90
2391;DHT22;22957;50.824;4.360;2022-11-15T14:57:19;14.20;99.90
2391;DHT22;22957;50.824;4.360;2022-11-15T14:59:52;14.00;99.90
2391;DHT22;22957;50.824;4.360;2022-11-15T15:02:23;14.30;99.90
2391;DHT22;22957;50.824;4.360;2022-11-15T15:04:49;14.30;99.90
2391;DHT22;22957;50.824;4.360;2022-11-15T15:07:17;14.80;99.90
2391;DHT22;22957;50.824;4.360;2022-11-15T15:09:44;14.40;99.90
2391;DHT22;22957;50.824;4.360;2022-11-15T15:12:23;14.70;99.90
2391;DHT22;22957;50.824;4.360;2022-11-15T15:14:50;14.70;99.90
2391;DHT22;22957;50.824;4.360;2022-11-15T15:17:17;14.20;99.90
2391;DHT22;22957;50.824;4.360;2022-11-15T15:19:43;14.30;99.90
2391;DHT22;22957;50.824;4.360;2022-11-15T15:22:15;14.30;99.90
2391;DHT22;22957;50.824;4.360;2022-11-15T15:24:43;14.20;99.90
2391;DHT22;22957;50.824;4.360;2022-11-15T15:27:09;13.90;99.90
2391;DHT22;22957;50.824;4.360;2022-11-15T15:29:35;14.10;99.90
2391;DHT22;22957;50.824;4.360;2022-11-15T15:32:01;14.20;99.90
2391;DHT22;22957;50.824;4.360;2022-11-15T15:34:27;14.40;99.90
2391;DHT22;22957;50.824;4.360;2022-11-15T15:37:09;13.90;99.90
2391;DHT22;22957;50.824;4.360;2022-11-15T15:39:34;14.30;99.90
2391;DHT22;22957;50.824;4.360;2022-11-15T15:42:00;14.30;99.90
2391;DHT22;22957;50.824;4.360;2022-11-15T15:44:26;14.10;99.90
2391;DHT22;22957;50.824;4.360;2022-11-15T15:46:52;14.00;99.90
2391;DHT22;22957;50.824;4.360;2022-11-15T15:49:21;14.10;99.90
2391;DHT22;22957;50.824;4.360;2022-11-15T15:51:46;13.80;99.90
2391;DHT22;22957;50.824;4.360;2022-11-15T15:54:12;14.20;99.90
2391;DHT22;22957;50.824;4.360;2022-11-15T15:56:38;13.90;99.90
2391;DHT22;22957;50.824;4.360;2022-11-15T15:59:04;13.80;99.90
2391;DHT22;22957;50.824;4.360;2022-11-15T16:01:33;13.90;99.90
2391;DHT22;22957;50.824;4.360;2022-11-15T16:03:59;13.50;99.90
2391;DHT22;22957;50.824;4.360;2022-11-15T16:08:56;13.80;99.90
2391;DHT22;22957;50.824;4.360;2022-11-15T16:11:23;13.80;99.90
2391;DHT22;22957;50.824;4.360;2022-11-15T16:13:49;13.70;99.90
2391;DHT22;22957;50.824;4.360;2022-11-15T16:16:15;13.90;99.90
2391;DHT22;22957;50.824;4.360;2022-11-15T16:18:41;13.80;99.90
2391;DHT22;22957;50.824;4.360;2022-11-15T16:21:08;13.90;99.90
2391;DHT22;22957;50.824;4.360;2022-11-15T16:23:33;13.80;99.90
2391;DHT22;22957;50.824;4.360;2022-11-15T16:25:59;13.70;99.90
2391;DHT22;22957;50.824;4.360;2022-11-15T16:28:29;14.00;99.90
2391;DHT22;22957;50.824;4.360;2022-11-15T16:31:11;13.90;99.90
2391;DHT22;22957;50.824;4.360;2022-11-15T16:33:39;13.80;99.90
2391;DHT22;22957;50.824;4.360;2022-11-15T16:36:06;13.90;99.90
2391;DHT22;22957;50.824;4.360;2022-11-15T16:38:37;13.40;99.90
2391;DHT22;22957;50.824;4.360;2022-11-15T16:41:04;13.30;99.90
2391;DHT22;22957;50.824;4.360;2022-11-15T16:43:30;13.50;99.90
2391;DHT22;22957;50.824;4.360;2022-11-15T16:45:56;13.70;99.90
2391;DHT22;22957;50.824;4.360;2022-11-15T16:48:25;14.10;99.90
2391;DHT22;22957;50.824;4.360;2022-11-15T16:50:58;14.00;99.90
2391;DHT22;22957;50.824;4.360;2022-11-15T16:53:25;13.90;99.90
2391;DHT22;22957;50.824;4.360;2022-11-15T16:55:51;13.90;99.90
2391;DHT22;22957;50.824;4.360;2022-11-15T16:58:17;13.70;99.90
2391;DHT22;22957;50.824;4.360;2022-11-15T17:00:43;13.70;99.90
2391;DHT22;22957;50.824;4.360;2022-11-15T17:03:08;13.80;99.90
2391;DHT22;22957;50.824;4.360;2022-11-15T17:05:34;13.60;99.90
2391;DHT22;22957;50.824;4.360;2022-11-15T17:08:00;13.60;99.90
2391;DHT22;22957;50.824;4.360;2022-11-15T17:10:26;13.70;99.90
2391;DHT22;22957;50.824;4.360;2022-11-15T17:12:54;13.70;99.90
2391;DHT22;22957;50.824;4.360;2022-11-15T17:15:20;13.90;99.90
2391;DHT22;22957;50.824;4.360;2022-11-15T17:17:55;13.80;99.90
2391;DHT22;22957;50.824;4.360;2022-11-15T17:20:23;13.80;99.90
2391;DHT22;22957;50.824;4.360;2022-11-15T17:22:50;13.40;99.90
2391;DHT22;22957;50.824;4.360;2022-11-15T17:25:19;13.80;99.90
2391;DHT22;22957;50.824;4.360;2022-11-15T17:27:45;13.70;99.90
2391;DHT22;22957;50.824;4.360;2022-11-15T17:30:12;13.80;99.90
2391;DHT22;22957;50.824;4.360;2022-11-15T17:32:40;13.50;99.90
2391;DHT22;22957;50.824;4.360;2022-11-15T17:35:06;13.70;99.90
2391;DHT22;22957;50.824;4.360;2022-11-15T17:37:33;13.70;99.90
2391;DHT22;22957;50.824;4.360;2022-11-15T17:39:58;13.80;99.90
2391;DHT22;22957;50.824;4.360;2022-11-15T17:42:24;13.70;99.90
2391;DHT22;22957;50.824;4.360;2022-11-15T17:44:50;14.10;99.90
2391;DHT22;22957;50.824;4.360;2022-11-15T17:47:16;13.50;99.90
2391;DHT22;22957;50.824;4.360;2022-11-15T17:49:41;13.80;99.90
2391;DHT22;22957;50.824;4.360;2022-11-15T17:52:07;13.70;99.90
2391;DHT22;22957;50.824;4.360;2022-11-15T17:54:33;13.80;99.90
2391;DHT22;22957;50.824;4.360;2022-11-15T17:56:59;14.30;99.90
2391;DHT22;22957;50.824;4.360;2022-11-15T17:59:25;13.70;99.90
2391;DHT22;22957;50.824;4.360;2022-11-15T18:01:50;13.90;99.90
2391;DHT22;22957;50.824;4.360;2022-11-15T18:04:18;13.90;99.90